Terminal Aerodrome Forecast
Issued by NWS

Home | Current Version | Previous Version | Graphics & Text | Print | Product List | Glossary On
Versions: 1 2 3 4 5 6 7 8 9 10 11 12 13 14 15 16 17 18 19 20 21 22 23 24 25 26 27
000
FTUS43 KABR 060231 AAB
TAFMBG
TAF AMD
KMBG 060231Z 0603/0624 01011KT 2SM -RA BR SCT045 BKN060 BKN080
     FM060900 35008KT P6SM BKN050
     FM061600 35014KT P6SM SCT050=

USA.gov is the U.S. government's official web portal to all federal, state and local government web resources and services.